sensor_id;sensor_type;location;lat;lon;timestamp;P1;durP1;ratioP1;P2;durP2;ratioP2
80725;SDS011;70113;59.928;10.878;2023-06-14T00:00:11;7.72;;;4.05;;
80725;SDS011;70113;59.928;10.878;2023-06-14T00:02:57;7.40;;;4.10;;
80725;SDS011;70113;59.928;10.878;2023-06-14T00:05:23;7.80;;;4.25;;
80725;SDS011;70113;59.928;10.878;2023-06-14T00:07:49;6.32;;;3.85;;
80725;SDS011;70113;59.928;10.878;2023-06-14T00:10:18;5.82;;;3.83;;
80725;SDS011;70113;59.928;10.878;2023-06-14T00:12:44;7.93;;;4.10;;
80725;SDS011;70113;59.928;10.878;2023-06-14T00:15:10;7.15;;;4.00;;
80725;SDS011;70113;59.928;10.878;2023-06-14T00:17:36;7.15;;;3.70;;
80725;SDS011;70113;59.928;10.878;2023-06-14T00:20:04;8.27;;;3.95;;
80725;SDS011;70113;59.928;10.878;2023-06-14T00:22:33;5.63;;;3.60;;
80725;SDS011;70113;59.928;10.878;2023-06-14T00:24:59;7.45;;;4.10;;
80725;SDS011;70113;59.928;10.878;2023-06-14T00:27:25;8.50;;;4.32;;
80725;SDS011;70113;59.928;10.878;2023-06-14T00:29:51;8.20;;;3.80;;
80725;SDS011;70113;59.928;10.878;2023-06-14T00:32:18;7.65;;;4.20;;
80725;SDS011;70113;59.928;10.878;2023-06-14T00:34:44;7.93;;;4.03;;
80725;SDS011;70113;59.928;10.878;2023-06-14T00:37:09;7.45;;;3.88;;
80725;SDS011;70113;59.928;10.878;2023-06-14T00:39:35;7.43;;;4.13;;
80725;SDS011;70113;59.928;10.878;2023-06-14T00:42:01;8.65;;;3.95;;
80725;SDS011;70113;59.928;10.878;2023-06-14T00:44:27;6.90;;;3.70;;
80725;SDS011;70113;59.928;10.878;2023-06-14T00:46:52;6.50;;;3.97;;
80725;SDS011;70113;59.928;10.878;2023-06-14T00:49:18;9.30;;;4.18;;
80725;SDS011;70113;59.928;10.878;2023-06-14T00:51:45;7.68;;;3.92;;
80725;SDS011;70113;59.928;10.878;2023-06-14T00:54:11;7.47;;;4.13;;
80725;SDS011;70113;59.928;10.878;2023-06-14T00:56:37;6.55;;;3.88;;
80725;SDS011;70113;59.928;10.878;2023-06-14T00:59:03;5.93;;;3.92;;
80725;SDS011;70113;59.928;10.878;2023-06-14T01:01:32;6.05;;;3.58;;
80725;SDS011;70113;59.928;10.878;2023-06-14T01:03:59;6.43;;;3.90;;
80725;SDS011;70113;59.928;10.878;2023-06-14T01:12:14;7.55;;;4.20;;
80725;SDS011;70113;59.928;10.878;2023-06-14T01:14:46;7.80;;;4.10;;
80725;SDS011;70113;59.928;10.878;2023-06-14T01:17:13;6.30;;;4.13;;
80725;SDS011;70113;59.928;10.878;2023-06-14T01:19:42;7.30;;;3.92;;
80725;SDS011;70113;59.928;10.878;2023-06-14T01:22:09;7.38;;;3.63;;
80725;SDS011;70113;59.928;10.878;2023-06-14T01:24:36;8.80;;;4.22;;
80725;SDS011;70113;59.928;10.878;2023-06-14T01:27:04;6.35;;;3.80;;
80725;SDS011;70113;59.928;10.878;2023-06-14T01:29:32;6.78;;;3.92;;
80725;SDS011;70113;59.928;10.878;2023-06-14T01:31:59;8.20;;;4.18;;
80725;SDS011;70113;59.928;10.878;2023-06-14T01:34:26;5.13;;;3.15;;
80725;SDS011;70113;59.928;10.878;2023-06-14T01:36:51;7.28;;;4.10;;
80725;SDS011;70113;59.928;10.878;2023-06-14T01:39:20;6.75;;;3.58;;
80725;SDS011;70113;59.928;10.878;2023-06-14T01:41:47;6.38;;;3.58;;
80725;SDS011;70113;59.928;10.878;2023-06-14T01:44:16;5.38;;;3.90;;
80725;SDS011;70113;59.928;10.878;2023-06-14T01:46:43;8.45;;;4.22;;
80725;SDS011;70113;59.928;10.878;2023-06-14T01:49:11;7.93;;;3.60;;
80725;SDS011;70113;59.928;10.878;2023-06-14T01:51:37;6.00;;;3.33;;
80725;SDS011;70113;59.928;10.878;2023-06-14T01:54:03;6.75;;;3.85;;
80725;SDS011;70113;59.928;10.878;2023-06-14T01:56:28;6.93;;;4.07;;
80725;SDS011;70113;59.928;10.878;2023-06-14T01:58:54;7.65;;;4.20;;
80725;SDS011;70113;59.928;10.878;2023-06-14T02:01:21;5.78;;;3.88;;
80725;SDS011;70113;59.928;10.878;2023-06-14T02:03:47;6.47;;;3.85;;
80725;SDS011;70113;59.928;10.878;2023-06-14T02:06:14;7.68;;;4.28;;
80725;SDS011;70113;59.928;10.878;2023-06-14T02:08:41;7.50;;;3.92;;
80725;SDS011;70113;59.928;10.878;2023-06-14T02:11:08;8.27;;;3.85;;
80725;SDS011;70113;59.928;10.878;2023-06-14T02:13:34;7.05;;;4.28;;
80725;SDS011;70113;59.928;10.878;2023-06-14T02:16:00;6.68;;;4.10;;
80725;SDS011;70113;59.928;10.878;2023-06-14T02:18:26;6.85;;;3.83;;
80725;SDS011;70113;59.928;10.878;2023-06-14T02:20:52;7.22;;;3.80;;
80725;SDS011;70113;59.928;10.878;2023-06-14T02:23:18;6.15;;;4.00;;
80725;SDS011;70113;59.928;10.878;2023-06-14T02:25:44;6.38;;;3.78;;
80725;SDS011;70113;59.928;10.878;2023-06-14T02:28:11;6.88;;;3.83;;
80725;SDS011;70113;59.928;10.878;2023-06-14T02:30:37;6.50;;;4.03;;
80725;SDS011;70113;59.928;10.878;2023-06-14T02:33:03;6.35;;;3.78;;
80725;SDS011;70113;59.928;10.878;2023-06-14T02:35:30;6.38;;;3.95;;
80725;SDS011;70113;59.928;10.878;2023-06-14T02:37:56;9.43;;;4.65;;
80725;SDS011;70113;59.928;10.878;2023-06-14T02:40:22;5.30;;;3.50;;
80725;SDS011;70113;59.928;10.878;2023-06-14T02:42:48;7.25;;;4.10;;
80725;SDS011;70113;59.928;10.878;2023-06-14T02:45:13;7.28;;;3.95;;
80725;SDS011;70113;59.928;10.878;2023-06-14T02:47:40;7.07;;;3.28;;
80725;SDS011;70113;59.928;10.878;2023-06-14T02:50:06;7.57;;;3.83;;
80725;SDS011;70113;59.928;10.878;2023-06-14T02:52:35;7.20;;;4.00;;
80725;SDS011;70113;59.928;10.878;2023-06-14T02:55:00;6.30;;;3.95;;
80725;SDS011;70113;59.928;10.878;2023-06-14T02:57:26;7.78;;;3.75;;
80725;SDS011;70113;59.928;10.878;2023-06-14T02:59:52;6.43;;;3.58;;
80725;SDS011;70113;59.928;10.878;2023-06-14T03:02:18;6.63;;;3.88;;
80725;SDS011;70113;59.928;10.878;2023-06-14T03:04:43;7.75;;;3.85;;
80725;SDS011;70113;59.928;10.878;2023-06-14T03:07:12;6.60;;;3.47;;
80725;SDS011;70113;59.928;10.878;2023-06-14T03:09:38;6.45;;;4.05;;
80725;SDS011;70113;59.928;10.878;2023-06-14T03:12:05;6.68;;;3.60;;
80725;SDS011;70113;59.928;10.878;2023-06-14T03:14:33;6.57;;;3.78;;
80725;SDS011;70113;59.928;10.878;2023-06-14T03:17:00;9.75;;;4.43;;
80725;SDS011;70113;59.928;10.878;2023-06-14T03:19:25;9.88;;;3.95;;
80725;SDS011;70113;59.928;10.878;2023-06-14T03:21:52;7.82;;;4.07;;
80725;SDS011;70113;59.928;10.878;2023-06-14T03:24:18;6.10;;;3.80;;
80725;SDS011;70113;59.928;10.878;2023-06-14T03:26:45;8.13;;;4.45;;
80725;SDS011;70113;59.928;10.878;2023-06-14T03:29:11;9.20;;;4.10;;
80725;SDS011;70113;59.928;10.878;2023-06-14T03:31:41;7.55;;;4.45;;
80725;SDS011;70113;59.928;10.878;2023-06-14T03:34:22;6.75;;;4.45;;
80725;SDS011;70113;59.928;10.878;2023-06-14T03:36:48;9.38;;;4.05;;
80725;SDS011;70113;59.928;10.878;2023-06-14T03:39:14;8.60;;;4.82;;
80725;SDS011;70113;59.928;10.878;2023-06-14T03:41:40;9.55;;;5.30;;
80725;SDS011;70113;59.928;10.878;2023-06-14T03:44:06;8.45;;;5.70;;
80725;SDS011;70113;59.928;10.878;2023-06-14T03:46:31;8.32;;;5.70;;
80725;SDS011;70113;59.928;10.878;2023-06-14T03:48:57;8.40;;;5.07;;
80725;SDS011;70113;59.928;10.878;2023-06-14T03:51:23;12.25;;;5.85;;
80725;SDS011;70113;59.928;10.878;2023-06-14T03:53:50;10.02;;;5.22;;
80725;SDS011;70113;59.928;10.878;2023-06-14T03:56:16;8.60;;;5.10;;
80725;SDS011;70113;59.928;10.878;2023-06-14T03:58:41;10.48;;;5.50;;
80725;SDS011;70113;59.928;10.878;2023-06-14T04:01:07;8.25;;;5.03;;
80725;SDS011;70113;59.928;10.878;2023-06-14T04:03:33;7.95;;;5.18;;
80725;SDS011;70113;59.928;10.878;2023-06-14T04:05:59;9.43;;;5.53;;
80725;SDS011;70113;59.928;10.878;2023-06-14T04:08:25;8.10;;;5.53;;
80725;SDS011;70113;59.928;10.878;2023-06-14T04:10:51;8.90;;;5.30;;
80725;SDS011;70113;59.928;10.878;2023-06-14T04:13:16;8.32;;;5.50;;
80725;SDS011;70113;59.928;10.878;2023-06-14T04:15:42;9.43;;;5.95;;
80725;SDS011;70113;59.928;10.878;2023-06-14T04:18:11;8.00;;;5.65;;
80725;SDS011;70113;59.928;10.878;2023-06-14T04:20:37;9.68;;;5.43;;
80725;SDS011;70113;59.928;10.878;2023-06-14T04:23:12;9.93;;;5.55;;
80725;SDS011;70113;59.928;10.878;2023-06-14T04:25:39;8.45;;;5.72;;
80725;SDS011;70113;59.928;10.878;2023-06-14T04:28:05;9.68;;;5.07;;
80725;SDS011;70113;59.928;10.878;2023-06-14T04:30:34;10.35;;;5.13;;
80725;SDS011;70113;59.928;10.878;2023-06-14T04:33:00;7.38;;;5.10;;
80725;SDS011;70113;59.928;10.878;2023-06-14T04:35:26;11.10;;;5.28;;
80725;SDS011;70113;59.928;10.878;2023-06-14T04:37:54;9.20;;;5.88;;
80725;SDS011;70113;59.928;10.878;2023-06-14T04:40:20;6.80;;;4.72;;
80725;SDS011;70113;59.928;10.878;2023-06-14T04:42:46;8.20;;;5.38;;
80725;SDS011;70113;59.928;10.878;2023-06-14T04:45:12;8.85;;;4.82;;
80725;SDS011;70113;59.928;10.878;2023-06-14T04:47:40;9.77;;;4.95;;
80725;SDS011;70113;59.928;10.878;2023-06-14T04:50:07;7.32;;;5.13;;
80725;SDS011;70113;59.928;10.878;2023-06-14T04:52:33;8.55;;;5.30;;
80725;SDS011;70113;59.928;10.878;2023-06-14T04:55:01;8.20;;;4.75;;
80725;SDS011;70113;59.928;10.878;2023-06-14T04:57:27;9.27;;;4.55;;
80725;SDS011;70113;59.928;10.878;2023-06-14T04:59:52;6.97;;;4.65;;
80725;SDS011;70113;59.928;10.878;2023-06-14T05:02:23;7.35;;;4.57;;
80725;SDS011;70113;59.928;10.878;2023-06-14T05:04:50;8.68;;;5.82;;
80725;SDS011;70113;59.928;10.878;2023-06-14T05:07:16;9.93;;;5.40;;
80725;SDS011;70113;59.928;10.878;2023-06-14T05:09:42;10.10;;;5.22;;
80725;SDS011;70113;59.928;10.878;2023-06-14T05:12:08;8.13;;;4.82;;
80725;SDS011;70113;59.928;10.878;2023-06-14T05:14:35;10.05;;;5.10;;
80725;SDS011;70113;59.928;10.878;2023-06-14T05:17:01;11.35;;;5.22;;
80725;SDS011;70113;59.928;10.878;2023-06-14T05:19:28;6.95;;;4.43;;
80725;SDS011;70113;59.928;10.878;2023-06-14T05:21:53;8.75;;;4.53;;
80725;SDS011;70113;59.928;10.878;2023-06-14T05:24:20;8.68;;;4.90;;
80725;SDS011;70113;59.928;10.878;2023-06-14T05:26:46;9.52;;;4.95;;
80725;SDS011;70113;59.928;10.878;2023-06-14T05:29:12;11.57;;;5.00;;
80725;SDS011;70113;59.928;10.878;2023-06-14T05:31:38;8.05;;;4.88;;
80725;SDS011;70113;59.928;10.878;2023-06-14T05:34:04;8.45;;;4.32;;
80725;SDS011;70113;59.928;10.878;2023-06-14T05:36:29;7.93;;;4.43;;
80725;SDS011;70113;59.928;10.878;2023-06-14T05:38:55;7.40;;;4.65;;
80725;SDS011;70113;59.928;10.878;2023-06-14T05:41:24;7.40;;;4.40;;
80725;SDS011;70113;59.928;10.878;2023-06-14T05:43:53;10.55;;;4.80;;
80725;SDS011;70113;59.928;10.878;2023-06-14T05:46:20;7.53;;;4.97;;
80725;SDS011;70113;59.928;10.878;2023-06-14T05:48:48;9.07;;;4.80;;
80725;SDS011;70113;59.928;10.878;2023-06-14T05:51:14;9.65;;;4.82;;
80725;SDS011;70113;59.928;10.878;2023-06-14T05:53:40;6.63;;;4.50;;
80725;SDS011;70113;59.928;10.878;2023-06-14T05:56:05;8.07;;;5.38;;
80725;SDS011;70113;59.928;10.878;2023-06-14T05:58:31;9.98;;;4.13;;
80725;SDS011;70113;59.928;10.878;2023-06-14T06:00:57;11.20;;;4.57;;
80725;SDS011;70113;59.928;10.878;2023-06-14T06:03:23;10.77;;;5.35;;
80725;SDS011;70113;59.928;10.878;2023-06-14T06:05:48;8.98;;;5.40;;
80725;SDS011;70113;59.928;10.878;2023-06-14T06:08:14;10.80;;;4.68;;
80725;SDS011;70113;59.928;10.878;2023-06-14T06:10:42;11.30;;;5.68;;
80725;SDS011;70113;59.928;10.878;2023-06-14T06:13:07;13.80;;;5.80;;
80725;SDS011;70113;59.928;10.878;2023-06-14T06:15:33;16.35;;;6.10;;
80725;SDS011;70113;59.928;10.878;2023-06-14T06:17:59;13.63;;;5.60;;
80725;SDS011;70113;59.928;10.878;2023-06-14T06:20:25;11.85;;;6.22;;
80725;SDS011;70113;59.928;10.878;2023-06-14T06:22:54;10.40;;;5.90;;
80725;SDS011;70113;59.928;10.878;2023-06-14T06:25:19;12.50;;;5.00;;
80725;SDS011;70113;59.928;10.878;2023-06-14T06:27:46;13.05;;;5.97;;
80725;SDS011;70113;59.928;10.878;2023-06-14T06:30:11;12.75;;;6.50;;
80725;SDS011;70113;59.928;10.878;2023-06-14T06:32:37;14.70;;;6.03;;
80725;SDS011;70113;59.928;10.878;2023-06-14T06:35:03;15.13;;;5.95;;
80725;SDS011;70113;59.928;10.878;2023-06-14T06:37:31;8.50;;;5.40;;
80725;SDS011;70113;59.928;10.878;2023-06-14T06:39:57;12.52;;;5.90;;
80725;SDS011;70113;59.928;10.878;2023-06-14T06:42:23;12.15;;;5.50;;
80725;SDS011;70113;59.928;10.878;2023-06-14T06:47:14;11.47;;;6.73;;
80725;SDS011;70113;59.928;10.878;2023-06-14T06:49:40;12.60;;;5.93;;
80725;SDS011;70113;59.928;10.878;2023-06-14T06:52:06;10.45;;;6.00;;
80725;SDS011;70113;59.928;10.878;2023-06-14T06:54:32;16.08;;;6.22;;
80725;SDS011;70113;59.928;10.878;2023-06-14T06:56:58;13.77;;;6.90;;
80725;SDS011;70113;59.928;10.878;2023-06-14T06:59:25;12.32;;;6.15;;
80725;SDS011;70113;59.928;10.878;2023-06-14T07:01:51;10.20;;;6.00;;
80725;SDS011;70113;59.928;10.878;2023-06-14T07:04:16;15.38;;;6.38;;
80725;SDS011;70113;59.928;10.878;2023-06-14T07:06:42;11.98;;;6.10;;
80725;SDS011;70113;59.928;10.878;2023-06-14T07:09:08;14.15;;;6.47;;
80725;SDS011;70113;59.928;10.878;2023-06-14T07:11:38;19.20;;;6.70;;
80725;SDS011;70113;59.928;10.878;2023-06-14T07:14:05;13.85;;;6.95;;
80725;SDS011;70113;59.928;10.878;2023-06-14T07:16:31;15.90;;;6.60;;
80725;SDS011;70113;59.928;10.878;2023-06-14T07:18:57;20.42;;;6.97;;
80725;SDS011;70113;59.928;10.878;2023-06-14T07:21:22;16.70;;;7.13;;
80725;SDS011;70113;59.928;10.878;2023-06-14T07:23:48;16.60;;;7.13;;
80725;SDS011;70113;59.928;10.878;2023-06-14T07:26:14;12.00;;;6.07;;
80725;SDS011;70113;59.928;10.878;2023-06-14T07:28:39;11.48;;;6.50;;
80725;SDS011;70113;59.928;10.878;2023-06-14T07:31:05;10.95;;;6.30;;
80725;SDS011;70113;59.928;10.878;2023-06-14T07:33:31;13.93;;;6.88;;
80725;SDS011;70113;59.928;10.878;2023-06-14T07:35:56;15.07;;;6.40;;
80725;SDS011;70113;59.928;10.878;2023-06-14T07:38:22;10.32;;;5.80;;
80725;SDS011;70113;59.928;10.878;2023-06-14T07:40:48;11.43;;;6.38;;
80725;SDS011;70113;59.928;10.878;2023-06-14T07:43:13;11.60;;;6.28;;
80725;SDS011;70113;59.928;10.878;2023-06-14T07:45:39;10.75;;;6.32;;
80725;SDS011;70113;59.928;10.878;2023-06-14T07:48:05;15.32;;;6.75;;
80725;SDS011;70113;59.928;10.878;2023-06-14T07:50:31;12.23;;;6.25;;
80725;SDS011;70113;59.928;10.878;2023-06-14T07:52:58;8.27;;;5.60;;
80725;SDS011;70113;59.928;10.878;2023-06-14T07:55:23;14.05;;;6.68;;
80725;SDS011;70113;59.928;10.878;2023-06-14T07:57:50;10.43;;;6.07;;
80725;SDS011;70113;59.928;10.878;2023-06-14T08:00:16;7.80;;;5.70;;
80725;SDS011;70113;59.928;10.878;2023-06-14T08:02:43;8.45;;;5.40;;
80725;SDS011;70113;59.928;10.878;2023-06-14T08:05:10;10.55;;;5.00;;
80725;SDS011;70113;59.928;10.878;2023-06-14T08:07:37;9.52;;;6.05;;
80725;SDS011;70113;59.928;10.878;2023-06-14T08:10:04;11.30;;;5.93;;
80725;SDS011;70113;59.928;10.878;2023-06-14T08:12:30;12.70;;;6.10;;
80725;SDS011;70113;59.928;10.878;2023-06-14T08:14:56;9.07;;;5.72;;
80725;SDS011;70113;59.928;10.878;2023-06-14T08:17:22;10.52;;;5.72;;
80725;SDS011;70113;59.928;10.878;2023-06-14T08:19:47;11.35;;;5.25;;
80725;SDS011;70113;59.928;10.878;2023-06-14T08:22:13;14.32;;;6.30;;
80725;SDS011;70113;59.928;10.878;2023-06-14T08:24:39;12.45;;;6.30;;
80725;SDS011;70113;59.928;10.878;2023-06-14T08:27:06;9.70;;;6.15;;
80725;SDS011;70113;59.928;10.878;2023-06-14T08:29:32;12.98;;;6.78;;
80725;SDS011;70113;59.928;10.878;2023-06-14T08:31:57;9.63;;;5.35;;
80725;SDS011;70113;59.928;10.878;2023-06-14T08:34:23;8.88;;;4.95;;
80725;SDS011;70113;59.928;10.878;2023-06-14T08:36:50;8.07;;;5.63;;
80725;SDS011;70113;59.928;10.878;2023-06-14T08:39:16;11.15;;;5.85;;
80725;SDS011;70113;59.928;10.878;2023-06-14T08:41:43;11.80;;;5.10;;
80725;SDS011;70113;59.928;10.878;2023-06-14T08:44:12;9.43;;;5.45;;
80725;SDS011;70113;59.928;10.878;2023-06-14T08:49:30;10.02;;;5.55;;
80725;SDS011;70113;59.928;10.878;2023-06-14T08:51:57;9.05;;;5.72;;
80725;SDS011;70113;59.928;10.878;2023-06-14T08:54:28;7.78;;;5.65;;
80725;SDS011;70113;59.928;10.878;2023-06-14T08:56:59;11.45;;;5.47;;
80725;SDS011;70113;59.928;10.878;2023-06-14T08:59:28;8.98;;;4.85;;
80725;SDS011;70113;59.928;10.878;2023-06-14T09:01:54;8.88;;;4.90;;
80725;SDS011;70113;59.928;10.878;2023-06-14T09:04:23;8.77;;;5.53;;
80725;SDS011;70113;59.928;10.878;2023-06-14T09:06:58;7.78;;;4.47;;
80725;SDS011;70113;59.928;10.878;2023-06-14T09:09:23;9.30;;;5.60;;
80725;SDS011;70113;59.928;10.878;2023-06-14T09:11:51;8.05;;;4.75;;
80725;SDS011;70113;59.928;10.878;2023-06-14T09:14:23;12.13;;;4.80;;
80725;SDS011;70113;59.928;10.878;2023-06-14T09:16:56;9.20;;;4.93;;
80725;SDS011;70113;59.928;10.878;2023-06-14T09:19:22;8.57;;;5.00;;
80725;SDS011;70113;59.928;10.878;2023-06-14T09:21:49;12.55;;;5.00;;
80725;SDS011;70113;59.928;10.878;2023-06-14T09:24:17;10.65;;;4.57;;
80725;SDS011;70113;59.928;10.878;2023-06-14T09:26:42;10.18;;;4.15;;
80725;SDS011;70113;59.928;10.878;2023-06-14T09:29:09;8.50;;;4.63;;
80725;SDS011;70113;59.928;10.878;2023-06-14T09:31:35;8.82;;;4.70;;
80725;SDS011;70113;59.928;10.878;2023-06-14T09:34:02;14.20;;;4.53;;
80725;SDS011;70113;59.928;10.878;2023-06-14T09:36:30;10.18;;;4.40;;
80725;SDS011;70113;59.928;10.878;2023-06-14T09:38:57;9.70;;;4.40;;
80725;SDS011;70113;59.928;10.878;2023-06-14T09:41:34;11.15;;;4.20;;
80725;SDS011;70113;59.928;10.878;2023-06-14T09:44:01;10.88;;;4.32;;
80725;SDS011;70113;59.928;10.878;2023-06-14T09:46:29;6.90;;;3.78;;
80725;SDS011;70113;59.928;10.878;2023-06-14T09:48:56;7.07;;;3.75;;
80725;SDS011;70113;59.928;10.878;2023-06-14T09:51:23;7.40;;;4.10;;
80725;SDS011;70113;59.928;10.878;2023-06-14T09:53:49;10.77;;;4.28;;
80725;SDS011;70113;59.928;10.878;2023-06-14T09:56:21;7.05;;;3.72;;
80725;SDS011;70113;59.928;10.878;2023-06-14T09:58:53;9.55;;;4.65;;
80725;SDS011;70113;59.928;10.878;2023-06-14T10:01:21;7.85;;;4.35;;
80725;SDS011;70113;59.928;10.878;2023-06-14T10:03:48;10.80;;;4.65;;
80725;SDS011;70113;59.928;10.878;2023-06-14T10:06:16;7.07;;;4.25;;
80725;SDS011;70113;59.928;10.878;2023-06-14T10:08:42;7.97;;;4.20;;
80725;SDS011;70113;59.928;10.878;2023-06-14T10:11:11;6.28;;;3.65;;
80725;SDS011;70113;59.928;10.878;2023-06-14T10:13:38;6.57;;;3.88;;
80725;SDS011;70113;59.928;10.878;2023-06-14T10:23:53;8.02;;;3.97;;
80725;SDS011;70113;59.928;10.878;2023-06-14T10:26:20;7.82;;;3.78;;
80725;SDS011;70113;59.928;10.878;2023-06-14T10:28:57;8.55;;;3.75;;
80725;SDS011;70113;59.928;10.878;2023-06-14T10:31:57;7.70;;;3.88;;
80725;SDS011;70113;59.928;10.878;2023-06-14T10:34:25;7.70;;;3.80;;
80725;SDS011;70113;59.928;10.878;2023-06-14T10:39:41;5.85;;;3.65;;
80725;SDS011;70113;59.928;10.878;2023-06-14T10:42:08;7.78;;;4.15;;
80725;SDS011;70113;59.928;10.878;2023-06-14T10:47:05;8.50;;;3.55;;
80725;SDS011;70113;59.928;10.878;2023-06-14T10:49:45;7.30;;;4.13;;
80725;SDS011;70113;59.928;10.878;2023-06-14T10:52:17;9.20;;;3.78;;
80725;SDS011;70113;59.928;10.878;2023-06-14T10:57:25;7.47;;;3.42;;
80725;SDS011;70113;59.928;10.878;2023-06-14T10:59:51;7.00;;;3.97;;
80725;SDS011;70113;59.928;10.878;2023-06-14T11:05:10;6.00;;;3.58;;
80725;SDS011;70113;59.928;10.878;2023-06-14T11:10:37;5.97;;;3.60;;
80725;SDS011;70113;59.928;10.878;2023-06-14T11:13:06;5.95;;;4.15;;
80725;SDS011;70113;59.928;10.878;2023-06-14T11:15:33;6.40;;;3.63;;
80725;SDS011;70113;59.928;10.878;2023-06-14T11:18:00;6.30;;;3.40;;
80725;SDS011;70113;59.928;10.878;2023-06-14T11:20:35;5.80;;;3.50;;
80725;SDS011;70113;59.928;10.878;2023-06-14T11:23:02;8.90;;;3.90;;
80725;SDS011;70113;59.928;10.878;2023-06-14T11:25:29;5.43;;;3.65;;
80725;SDS011;70113;59.928;10.878;2023-06-14T11:27:55;6.68;;;3.70;;
80725;SDS011;70113;59.928;10.878;2023-06-14T11:30:21;7.47;;;3.88;;
80725;SDS011;70113;59.928;10.878;2023-06-14T11:32:51;10.43;;;3.70;;
80725;SDS011;70113;59.928;10.878;2023-06-14T11:35:19;6.50;;;3.53;;
80725;SDS011;70113;59.928;10.878;2023-06-14T11:37:49;6.70;;;4.00;;
80725;SDS011;70113;59.928;10.878;2023-06-14T11:40:18;8.70;;;3.70;;
80725;SDS011;70113;59.928;10.878;2023-06-14T11:42:44;7.15;;;4.00;;
80725;SDS011;70113;59.928;10.878;2023-06-14T11:45:10;8.52;;;3.90;;
80725;SDS011;70113;59.928;10.878;2023-06-14T11:47:38;5.88;;;3.60;;
80725;SDS011;70113;59.928;10.878;2023-06-14T11:50:06;6.95;;;4.10;;
80725;SDS011;70113;59.928;10.878;2023-06-14T11:52:34;6.63;;;3.53;;
80725;SDS011;70113;59.928;10.878;2023-06-14T11:55:00;5.43;;;3.30;;
80725;SDS011;70113;59.928;10.878;2023-06-14T11:57:30;9.45;;;4.00;;
80725;SDS011;70113;59.928;10.878;2023-06-14T11:59:59;9.95;;;4.05;;
80725;SDS011;70113;59.928;10.878;2023-06-14T12:02:25;6.82;;;3.60;;
80725;SDS011;70113;59.928;10.878;2023-06-14T12:04:53;6.38;;;3.70;;
80725;SDS011;70113;59.928;10.878;2023-06-14T12:07:19;6.53;;;4.30;;
80725;SDS011;70113;59.928;10.878;2023-06-14T12:12:20;6.38;;;3.83;;
80725;SDS011;70113;59.928;10.878;2023-06-14T12:14:47;6.32;;;3.80;;
80725;SDS011;70113;59.928;10.878;2023-06-14T12:17:13;8.48;;;4.00;;
80725;SDS011;70113;59.928;10.878;2023-06-14T12:19:43;8.85;;;4.13;;
80725;SDS011;70113;59.928;10.878;2023-06-14T12:22:09;7.93;;;4.15;;
80725;SDS011;70113;59.928;10.878;2023-06-14T12:24:35;6.80;;;3.83;;
80725;SDS011;70113;59.928;10.878;2023-06-14T12:27:01;7.10;;;3.88;;
80725;SDS011;70113;59.928;10.878;2023-06-14T12:29:30;7.18;;;4.00;;
80725;SDS011;70113;59.928;10.878;2023-06-14T12:31:56;7.03;;;4.03;;
80725;SDS011;70113;59.928;10.878;2023-06-14T12:34:26;5.45;;;3.67;;
80725;SDS011;70113;59.928;10.878;2023-06-14T12:36:53;8.73;;;3.40;;
80725;SDS011;70113;59.928;10.878;2023-06-14T12:39:19;6.50;;;3.97;;
80725;SDS011;70113;59.928;10.878;2023-06-14T12:41:46;5.40;;;3.70;;
80725;SDS011;70113;59.928;10.878;2023-06-14T12:44:12;6.63;;;3.47;;
80725;SDS011;70113;59.928;10.878;2023-06-14T12:46:39;5.95;;;3.78;;
80725;SDS011;70113;59.928;10.878;2023-06-14T12:49:05;6.78;;;3.63;;
80725;SDS011;70113;59.928;10.878;2023-06-14T12:51:32;6.65;;;3.72;;
80725;SDS011;70113;59.928;10.878;2023-06-14T12:53:58;6.07;;;3.92;;
80725;SDS011;70113;59.928;10.878;2023-06-14T12:56:23;5.95;;;3.85;;
80725;SDS011;70113;59.928;10.878;2023-06-14T12:58:49;5.05;;;3.33;;
80725;SDS011;70113;59.928;10.878;2023-06-14T13:01:15;6.93;;;3.65;;
80725;SDS011;70113;59.928;10.878;2023-06-14T13:03:41;8.23;;;3.40;;
80725;SDS011;70113;59.928;10.878;2023-06-14T13:06:07;7.13;;;3.50;;
80725;SDS011;70113;59.928;10.878;2023-06-14T13:08:32;7.15;;;4.18;;
80725;SDS011;70113;59.928;10.878;2023-06-14T13:10:58;11.20;;;4.00;;
80725;SDS011;70113;59.928;10.878;2023-06-14T13:13:24;5.43;;;3.55;;
80725;SDS011;70113;59.928;10.878;2023-06-14T13:15:50;7.35;;;3.80;;
80725;SDS011;70113;59.928;10.878;2023-06-14T13:18:16;7.40;;;3.72;;
80725;SDS011;70113;59.928;10.878;2023-06-14T13:20:42;7.28;;;4.05;;
80725;SDS011;70113;59.928;10.878;2023-06-14T13:23:07;6.07;;;3.78;;
80725;SDS011;70113;59.928;10.878;2023-06-14T13:25:35;7.65;;;4.20;;
80725;SDS011;70113;59.928;10.878;2023-06-14T13:28:02;6.55;;;4.05;;
80725;SDS011;70113;59.928;10.878;2023-06-14T13:30:29;10.55;;;3.95;;
80725;SDS011;70113;59.928;10.878;2023-06-14T13:32:54;6.15;;;4.00;;
80725;SDS011;70113;59.928;10.878;2023-06-14T13:35:21;6.15;;;3.78;;
80725;SDS011;70113;59.928;10.878;2023-06-14T13:37:47;6.13;;;3.85;;
80725;SDS011;70113;59.928;10.878;2023-06-14T13:40:13;4.97;;;3.83;;
80725;SDS011;70113;59.928;10.878;2023-06-14T13:42:39;8.68;;;4.22;;
80725;SDS011;70113;59.928;10.878;2023-06-14T13:45:05;6.50;;;4.35;;
80725;SDS011;70113;59.928;10.878;2023-06-14T13:47:32;5.90;;;3.72;;
80725;SDS011;70113;59.928;10.878;2023-06-14T13:49:58;7.07;;;3.67;;
80725;SDS011;70113;59.928;10.878;2023-06-14T13:52:24;5.95;;;4.07;;
80725;SDS011;70113;59.928;10.878;2023-06-14T13:54:51;10.48;;;4.00;;
80725;SDS011;70113;59.928;10.878;2023-06-14T13:57:16;7.10;;;4.03;;
80725;SDS011;70113;59.928;10.878;2023-06-14T13:59:43;6.72;;;4.10;;
80725;SDS011;70113;59.928;10.878;2023-06-14T14:02:10;5.63;;;3.72;;
80725;SDS011;70113;59.928;10.878;2023-06-14T14:04:36;6.05;;;3.95;;
80725;SDS011;70113;59.928;10.878;2023-06-14T14:07:03;9.52;;;3.97;;
80725;SDS011;70113;59.928;10.878;2023-06-14T14:09:32;5.07;;;3.70;;
80725;SDS011;70113;59.928;10.878;2023-06-14T14:11:58;6.78;;;3.78;;
80725;SDS011;70113;59.928;10.878;2023-06-14T14:14:24;8.70;;;4.45;;
80725;SDS011;70113;59.928;10.878;2023-06-14T14:16:50;6.43;;;4.10;;
80725;SDS011;70113;59.928;10.878;2023-06-14T14:19:20;7.60;;;3.85;;
80725;SDS011;70113;59.928;10.878;2023-06-14T14:21:47;8.23;;;3.67;;
80725;SDS011;70113;59.928;10.878;2023-06-14T14:24:13;6.47;;;4.15;;
80725;SDS011;70113;59.928;10.878;2023-06-14T14:26:39;6.65;;;4.00;;
80725;SDS011;70113;59.928;10.878;2023-06-14T14:29:06;5.90;;;3.63;;
80725;SDS011;70113;59.928;10.878;2023-06-14T14:31:31;8.10;;;4.07;;
80725;SDS011;70113;59.928;10.878;2023-06-14T14:33:57;5.30;;;3.90;;
80725;SDS011;70113;59.928;10.878;2023-06-14T14:36:23;5.50;;;4.00;;
80725;SDS011;70113;59.928;10.878;2023-06-14T14:38:49;5.45;;;3.58;;
80725;SDS011;70113;59.928;10.878;2023-06-14T14:41:17;6.25;;;4.00;;
80725;SDS011;70113;59.928;10.878;2023-06-14T14:43:43;6.20;;;3.90;;
80725;SDS011;70113;59.928;10.878;2023-06-14T14:46:08;7.85;;;4.30;;
80725;SDS011;70113;59.928;10.878;2023-06-14T14:48:35;8.88;;;4.40;;
80725;SDS011;70113;59.928;10.878;2023-06-14T14:51:00;8.23;;;3.85;;
80725;SDS011;70113;59.928;10.878;2023-06-14T14:53:26;6.88;;;3.90;;
80725;SDS011;70113;59.928;10.878;2023-06-14T14:55:52;6.93;;;3.90;;
80725;SDS011;70113;59.928;10.878;2023-06-14T14:58:17;6.90;;;4.20;;
80725;SDS011;70113;59.928;10.878;2023-06-14T15:00:46;6.60;;;4.30;;
80725;SDS011;70113;59.928;10.878;2023-06-14T15:03:13;8.20;;;4.72;;